sensor_id;sensor_type;location;lat;lon;timestamp;P1;durP1;ratioP1;P2;durP2;ratioP2
16957;SDS011;8595;52.542;11.974;2023-06-19T00:00:27;13.23;;;12.00;;
16957;SDS011;8595;52.542;11.974;2023-06-19T00:02:55;13.07;;;11.88;;
16957;SDS011;8595;52.542;11.974;2023-06-19T00:05:22;13.55;;;12.25;;
16957;SDS011;8595;52.542;11.974;2023-06-19T00:07:50;13.38;;;12.18;;
16957;SDS011;8595;52.542;11.974;2023-06-19T00:10:16;13.55;;;12.23;;
16957;SDS011;8595;52.542;11.974;2023-06-19T00:12:45;14.07;;;12.77;;
16957;SDS011;8595;52.542;11.974;2023-06-19T00:15:11;14.88;;;13.38;;
16957;SDS011;8595;52.542;11.974;2023-06-19T00:17:38;15.38;;;13.38;;
16957;SDS011;8595;52.542;11.974;2023-06-19T00:20:06;13.55;;;12.25;;
16957;SDS011;8595;52.542;11.974;2023-06-19T00:22:34;12.45;;;11.25;;
16957;SDS011;8595;52.542;11.974;2023-06-19T00:25:01;13.23;;;12.02;;
16957;SDS011;8595;52.542;11.974;2023-06-19T00:27:27;14.05;;;11.93;;
16957;SDS011;8595;52.542;11.974;2023-06-19T00:29:56;16.75;;;12.43;;
16957;SDS011;8595;52.542;11.974;2023-06-19T00:32:26;12.57;;;11.32;;
16957;SDS011;8595;52.542;11.974;2023-06-19T00:34:53;13.68;;;12.48;;
16957;SDS011;8595;52.542;11.974;2023-06-19T00:37:20;14.25;;;13.02;;
16957;SDS011;8595;52.542;11.974;2023-06-19T00:39:47;12.95;;;11.65;;
16957;SDS011;8595;52.542;11.974;2023-06-19T00:42:14;12.48;;;11.27;;
16957;SDS011;8595;52.542;11.974;2023-06-19T00:44:40;13.45;;;12.13;;
16957;SDS011;8595;52.542;11.974;2023-06-19T00:47:09;11.70;;;10.52;;
16957;SDS011;8595;52.542;11.974;2023-06-19T00:49:37;13.75;;;12.52;;
16957;SDS011;8595;52.542;11.974;2023-06-19T00:52:04;14.40;;;12.10;;
16957;SDS011;8595;52.542;11.974;2023-06-19T00:54:32;13.35;;;12.07;;
16957;SDS011;8595;52.542;11.974;2023-06-19T00:56:59;12.27;;;11.13;;
16957;SDS011;8595;52.542;11.974;2023-06-19T00:59:26;14.00;;;12.60;;
16957;SDS011;8595;52.542;11.974;2023-06-19T01:01:53;13.88;;;12.57;;
16957;SDS011;8595;52.542;11.974;2023-06-19T01:04:22;13.25;;;12.00;;
16957;SDS011;8595;52.542;11.974;2023-06-19T01:06:51;14.23;;;12.68;;
16957;SDS011;8595;52.542;11.974;2023-06-19T01:09:23;16.98;;;13.30;;
16957;SDS011;8595;52.542;11.974;2023-06-19T01:11:55;12.63;;;11.52;;
16957;SDS011;8595;52.542;11.974;2023-06-19T01:14:25;13.73;;;12.52;;
16957;SDS011;8595;52.542;11.974;2023-06-19T01:16:57;13.63;;;12.52;;
16957;SDS011;8595;52.542;11.974;2023-06-19T01:19:25;13.60;;;12.13;;
16957;SDS011;8595;52.542;11.974;2023-06-19T01:21:53;13.77;;;12.38;;
16957;SDS011;8595;52.542;11.974;2023-06-19T01:24:21;14.18;;;12.88;;
16957;SDS011;8595;52.542;11.974;2023-06-19T01:26:48;13.07;;;11.90;;
16957;SDS011;8595;52.542;11.974;2023-06-19T01:29:15;14.10;;;12.70;;
16957;SDS011;8595;52.542;11.974;2023-06-19T01:31:45;13.65;;;12.35;;
16957;SDS011;8595;52.542;11.974;2023-06-19T01:34:16;13.30;;;12.00;;
16957;SDS011;8595;52.542;11.974;2023-06-19T01:36:45;15.05;;;13.60;;
16957;SDS011;8595;52.542;11.974;2023-06-19T01:39:14;12.88;;;11.57;;
16957;SDS011;8595;52.542;11.974;2023-06-19T01:41:43;13.88;;;12.57;;
16957;SDS011;8595;52.542;11.974;2023-06-19T01:44:11;13.88;;;12.57;;
16957;SDS011;8595;52.542;11.974;2023-06-19T01:46:38;13.50;;;12.20;;
16957;SDS011;8595;52.542;11.974;2023-06-19T01:49:06;14.10;;;12.80;;
16957;SDS011;8595;52.542;11.974;2023-06-19T01:51:33;14.35;;;13.05;;
16957;SDS011;8595;52.542;11.974;2023-06-19T01:54:01;13.88;;;12.68;;
16957;SDS011;8595;52.542;11.974;2023-06-19T01:56:28;14.63;;;13.25;;
16957;SDS011;8595;52.542;11.974;2023-06-19T01:58:56;14.75;;;13.43;;
16957;SDS011;8595;52.542;11.974;2023-06-19T02:01:23;13.27;;;12.07;;
16957;SDS011;8595;52.542;11.974;2023-06-19T02:03:49;14.80;;;13.50;;
16957;SDS011;8595;52.542;11.974;2023-06-19T02:06:17;14.20;;;12.90;;
16957;SDS011;8595;52.542;11.974;2023-06-19T02:08:43;14.65;;;13.35;;
16957;SDS011;8595;52.542;11.974;2023-06-19T02:11:10;14.45;;;12.95;;
16957;SDS011;8595;52.542;11.974;2023-06-19T02:13:37;14.45;;;12.95;;
16957;SDS011;8595;52.542;11.974;2023-06-19T02:16:05;15.02;;;13.63;;
16957;SDS011;8595;52.542;11.974;2023-06-19T02:18:32;14.70;;;12.75;;
16957;SDS011;8595;52.542;11.974;2023-06-19T02:20:58;14.00;;;12.60;;
16957;SDS011;8595;52.542;11.974;2023-06-19T02:23:25;12.73;;;11.63;;
16957;SDS011;8595;52.542;11.974;2023-06-19T02:25:52;14.63;;;13.32;;
16957;SDS011;8595;52.542;11.974;2023-06-19T02:28:18;14.15;;;12.85;;
16957;SDS011;8595;52.542;11.974;2023-06-19T02:30:46;14.23;;;12.93;;
16957;SDS011;8595;52.542;11.974;2023-06-19T02:33:14;13.88;;;12.32;;
16957;SDS011;8595;52.542;11.974;2023-06-19T02:35:41;14.68;;;13.27;;
16957;SDS011;8595;52.542;11.974;2023-06-19T02:38:10;14.63;;;13.38;;
16957;SDS011;8595;52.542;11.974;2023-06-19T02:40:38;13.32;;;12.18;;
16957;SDS011;8595;52.542;11.974;2023-06-19T02:43:05;14.63;;;13.32;;
16957;SDS011;8595;52.542;11.974;2023-06-19T02:45:32;13.82;;;12.50;;
16957;SDS011;8595;52.542;11.974;2023-06-19T02:47:59;13.35;;;12.25;;
16957;SDS011;8595;52.542;11.974;2023-06-19T02:50:27;14.30;;;13.10;;
16957;SDS011;8595;52.542;11.974;2023-06-19T02:52:53;14.07;;;12.77;;
16957;SDS011;8595;52.542;11.974;2023-06-19T02:55:20;15.98;;;14.38;;
16957;SDS011;8595;52.542;11.974;2023-06-19T02:57:47;14.65;;;13.35;;
16957;SDS011;8595;52.542;11.974;2023-06-19T03:00:14;14.00;;;12.80;;
16957;SDS011;8595;52.542;11.974;2023-06-19T03:02:40;14.00;;;12.70;;
16957;SDS011;8595;52.542;11.974;2023-06-19T03:05:08;13.70;;;12.55;;
16957;SDS011;8595;52.542;11.974;2023-06-19T03:07:37;14.10;;;12.80;;
16957;SDS011;8595;52.542;11.974;2023-06-19T03:10:04;14.52;;;13.23;;
16957;SDS011;8595;52.542;11.974;2023-06-19T03:12:31;14.25;;;12.95;;
16957;SDS011;8595;52.542;11.974;2023-06-19T03:14:58;14.82;;;13.52;;
16957;SDS011;8595;52.542;11.974;2023-06-19T03:17:25;13.45;;;12.23;;
16957;SDS011;8595;52.542;11.974;2023-06-19T03:19:51;14.55;;;13.25;;
16957;SDS011;8595;52.542;11.974;2023-06-19T03:22:19;13.25;;;12.15;;
16957;SDS011;8595;52.542;11.974;2023-06-19T03:24:48;16.23;;;13.57;;
16957;SDS011;8595;52.542;11.974;2023-06-19T03:27:14;14.90;;;13.50;;
16957;SDS011;8595;52.542;11.974;2023-06-19T03:29:41;13.98;;;12.68;;
16957;SDS011;8595;52.542;11.974;2023-06-19T03:32:08;14.35;;;13.13;;
16957;SDS011;8595;52.542;11.974;2023-06-19T03:34:35;14.32;;;12.93;;
16957;SDS011;8595;52.542;11.974;2023-06-19T03:37:01;13.98;;;12.68;;
16957;SDS011;8595;52.542;11.974;2023-06-19T03:39:28;13.45;;;12.27;;
16957;SDS011;8595;52.542;11.974;2023-06-19T03:41:57;14.85;;;13.40;;
16957;SDS011;8595;52.542;11.974;2023-06-19T03:44:24;14.63;;;13.13;;
16957;SDS011;8595;52.542;11.974;2023-06-19T03:46:50;14.02;;;12.75;;
16957;SDS011;8595;52.542;11.974;2023-06-19T03:49:17;14.75;;;13.45;;
16957;SDS011;8595;52.542;11.974;2023-06-19T03:51:44;14.48;;;13.10;;
16957;SDS011;8595;52.542;11.974;2023-06-19T03:54:11;14.77;;;13.30;;
16957;SDS011;8595;52.542;11.974;2023-06-19T03:56:37;14.65;;;13.35;;
16957;SDS011;8595;52.542;11.974;2023-06-19T03:59:06;13.43;;;12.23;;
16957;SDS011;8595;52.542;11.974;2023-06-19T04:01:32;15.30;;;14.00;;
16957;SDS011;8595;52.542;11.974;2023-06-19T04:03:59;14.50;;;13.15;;
16957;SDS011;8595;52.542;11.974;2023-06-19T04:06:26;14.60;;;13.35;;
16957;SDS011;8595;52.542;11.974;2023-06-19T04:08:52;14.68;;;13.38;;
16957;SDS011;8595;52.542;11.974;2023-06-19T04:11:19;15.80;;;13.98;;
16957;SDS011;8595;52.542;11.974;2023-06-19T04:13:46;14.70;;;13.30;;
16957;SDS011;8595;52.542;11.974;2023-06-19T04:16:14;13.90;;;12.70;;
16957;SDS011;8595;52.542;11.974;2023-06-19T04:18:41;15.43;;;13.82;;
16957;SDS011;8595;52.542;11.974;2023-06-19T04:21:08;15.15;;;13.75;;
16957;SDS011;8595;52.542;11.974;2023-06-19T04:23:34;15.80;;;14.20;;
16957;SDS011;8595;52.542;11.974;2023-06-19T04:26:01;15.23;;;14.02;;
16957;SDS011;8595;52.542;11.974;2023-06-19T04:28:28;15.68;;;14.25;;
16957;SDS011;8595;52.542;11.974;2023-06-19T04:30:54;16.02;;;14.18;;
16957;SDS011;8595;52.542;11.974;2023-06-19T04:33:26;14.65;;;13.35;;
16957;SDS011;8595;52.542;11.974;2023-06-19T04:35:53;14.02;;;12.82;;
16957;SDS011;8595;52.542;11.974;2023-06-19T04:38:20;15.07;;;13.77;;
16957;SDS011;8595;52.542;11.974;2023-06-19T04:40:48;14.43;;;13.13;;
16957;SDS011;8595;52.542;11.974;2023-06-19T04:43:15;13.98;;;12.77;;
16957;SDS011;8595;52.542;11.974;2023-06-19T04:45:42;14.63;;;13.32;;
16957;SDS011;8595;52.542;11.974;2023-06-19T04:48:09;14.18;;;13.07;;
16957;SDS011;8595;52.542;11.974;2023-06-19T04:50:40;14.30;;;12.90;;
16957;SDS011;8595;52.542;11.974;2023-06-19T04:53:07;15.15;;;13.70;;
16957;SDS011;8595;52.542;11.974;2023-06-19T04:55:34;14.70;;;13.40;;
16957;SDS011;8595;52.542;11.974;2023-06-19T04:58:01;15.02;;;13.60;;
16957;SDS011;8595;52.542;11.974;2023-06-19T05:00:28;15.15;;;13.75;;
16957;SDS011;8595;52.542;11.974;2023-06-19T05:02:54;14.10;;;12.98;;
16957;SDS011;8595;52.542;11.974;2023-06-19T05:05:26;15.02;;;13.68;;
16957;SDS011;8595;52.542;11.974;2023-06-19T05:07:54;14.50;;;13.30;;
16957;SDS011;8595;52.542;11.974;2023-06-19T05:10:21;15.25;;;13.95;;
16957;SDS011;8595;52.542;11.974;2023-06-19T05:12:47;14.40;;;12.38;;
16957;SDS011;8595;52.542;11.974;2023-06-19T05:15:14;14.57;;;13.27;;
16957;SDS011;8595;52.542;11.974;2023-06-19T05:17:41;13.50;;;12.38;;
16957;SDS011;8595;52.542;11.974;2023-06-19T05:20:08;14.75;;;13.32;;
16957;SDS011;8595;52.542;11.974;2023-06-19T05:22:36;14.32;;;12.82;;
16957;SDS011;8595;52.542;11.974;2023-06-19T05:25:05;14.30;;;13.13;;
16957;SDS011;8595;52.542;11.974;2023-06-19T05:27:32;14.20;;;12.90;;
16957;SDS011;8595;52.542;11.974;2023-06-19T05:29:59;15.25;;;13.93;;
16957;SDS011;8595;52.542;11.974;2023-06-19T05:32:26;14.77;;;13.35;;
16957;SDS011;8595;52.542;11.974;2023-06-19T05:34:53;15.13;;;13.82;;
16957;SDS011;8595;52.542;11.974;2023-06-19T05:37:19;15.32;;;13.23;;
16957;SDS011;8595;52.542;11.974;2023-06-19T05:39:47;13.98;;;12.77;;
16957;SDS011;8595;52.542;11.974;2023-06-19T05:42:15;14.60;;;13.30;;
16957;SDS011;8595;52.542;11.974;2023-06-19T05:44:42;14.02;;;12.82;;
16957;SDS011;8595;52.542;11.974;2023-06-19T05:47:09;16.10;;;14.55;;
16957;SDS011;8595;52.542;11.974;2023-06-19T05:49:36;13.73;;;12.32;;
16957;SDS011;8595;52.542;11.974;2023-06-19T05:52:06;14.50;;;13.30;;
16957;SDS011;8595;52.542;11.974;2023-06-19T05:54:33;14.00;;;12.80;;
16957;SDS011;8595;52.542;11.974;2023-06-19T05:57:00;14.40;;;13.10;;
16957;SDS011;8595;52.542;11.974;2023-06-19T05:59:28;14.38;;;13.07;;
16957;SDS011;8595;52.542;11.974;2023-06-19T06:01:55;13.63;;;12.52;;
16957;SDS011;8595;52.542;11.974;2023-06-19T06:04:21;15.00;;;13.80;;
16957;SDS011;8595;52.542;11.974;2023-06-19T06:06:48;14.30;;;12.90;;
16957;SDS011;8595;52.542;11.974;2023-06-19T06:09:15;14.45;;;13.15;;
16957;SDS011;8595;52.542;11.974;2023-06-19T06:11:41;14.63;;;13.23;;
16957;SDS011;8595;52.542;11.974;2023-06-19T06:14:08;15.25;;;13.95;;
16957;SDS011;8595;52.542;11.974;2023-06-19T06:16:36;15.10;;;13.40;;
16957;SDS011;8595;52.542;11.974;2023-06-19T06:19:03;15.07;;;13.77;;
16957;SDS011;8595;52.542;11.974;2023-06-19T06:21:32;15.00;;;13.70;;
16957;SDS011;8595;52.542;11.974;2023-06-19T06:24:02;14.18;;;12.85;;
16957;SDS011;8595;52.542;11.974;2023-06-19T06:26:29;15.63;;;14.13;;
16957;SDS011;8595;52.542;11.974;2023-06-19T06:28:56;14.70;;;13.30;;
16957;SDS011;8595;52.542;11.974;2023-06-19T06:31:23;15.05;;;13.75;;
16957;SDS011;8595;52.542;11.974;2023-06-19T06:33:57;15.07;;;13.68;;
16957;SDS011;8595;52.542;11.974;2023-06-19T06:36:24;15.38;;;13.88;;
16957;SDS011;8595;52.542;11.974;2023-06-19T06:38:51;16.23;;;14.02;;
16957;SDS011;8595;52.542;11.974;2023-06-19T06:41:20;15.15;;;13.85;;
16957;SDS011;8595;52.542;11.974;2023-06-19T06:43:47;15.63;;;14.23;;
16957;SDS011;8595;52.542;11.974;2023-06-19T06:46:14;15.20;;;13.80;;
16957;SDS011;8595;52.542;11.974;2023-06-19T06:48:40;15.73;;;14.15;;
16957;SDS011;8595;52.542;11.974;2023-06-19T06:51:09;16.02;;;14.50;;
16957;SDS011;8595;52.542;11.974;2023-06-19T06:53:35;15.00;;;13.70;;
16957;SDS011;8595;52.542;11.974;2023-06-19T06:56:02;14.80;;;13.40;;
16957;SDS011;8595;52.542;11.974;2023-06-19T06:58:29;17.50;;;15.63;;
16957;SDS011;8595;52.542;11.974;2023-06-19T07:00:56;16.35;;;14.95;;
16957;SDS011;8595;52.542;11.974;2023-06-19T07:03:23;16.58;;;14.90;;
16957;SDS011;8595;52.542;11.974;2023-06-19T07:05:50;16.63;;;15.13;;
16957;SDS011;8595;52.542;11.974;2023-06-19T07:08:19;16.77;;;15.02;;
16957;SDS011;8595;52.542;11.974;2023-06-19T07:10:45;16.20;;;14.55;;
16957;SDS011;8595;52.542;11.974;2023-06-19T07:13:12;15.65;;;14.13;;
16957;SDS011;8595;52.542;11.974;2023-06-19T07:15:39;16.60;;;14.95;;
16957;SDS011;8595;52.542;11.974;2023-06-19T07:18:06;17.88;;;16.02;;
16957;SDS011;8595;52.542;11.974;2023-06-19T07:20:33;16.60;;;15.10;;
16957;SDS011;8595;52.542;11.974;2023-06-19T07:23:00;16.75;;;15.32;;
16957;SDS011;8595;52.542;11.974;2023-06-19T07:25:28;16.08;;;14.48;;
16957;SDS011;8595;52.542;11.974;2023-06-19T07:27:55;16.48;;;15.05;;
16957;SDS011;8595;52.542;11.974;2023-06-19T07:30:22;17.35;;;15.75;;
16957;SDS011;8595;52.542;11.974;2023-06-19T07:32:49;17.38;;;15.77;;
16957;SDS011;8595;52.542;11.974;2023-06-19T07:35:16;16.17;;;14.65;;
16957;SDS011;8595;52.542;11.974;2023-06-19T07:37:44;15.95;;;14.55;;
16957;SDS011;8595;52.542;11.974;2023-06-19T07:40:11;15.93;;;14.40;;
16957;SDS011;8595;52.542;11.974;2023-06-19T07:42:39;17.00;;;15.50;;
16957;SDS011;8595;52.542;11.974;2023-06-19T07:45:07;16.63;;;14.98;;
16957;SDS011;8595;52.542;11.974;2023-06-19T07:47:34;15.95;;;14.32;;
16957;SDS011;8595;52.542;11.974;2023-06-19T07:50:02;16.75;;;15.15;;
16957;SDS011;8595;52.542;11.974;2023-06-19T07:52:28;17.40;;;15.80;;
16957;SDS011;8595;52.542;11.974;2023-06-19T07:54:56;16.92;;;15.32;;
16957;SDS011;8595;52.542;11.974;2023-06-19T07:57:24;17.33;;;15.50;;
16957;SDS011;8595;52.542;11.974;2023-06-19T07:59:53;18.15;;;15.95;;
16957;SDS011;8595;52.542;11.974;2023-06-19T08:02:21;17.23;;;15.52;;
16957;SDS011;8595;52.542;11.974;2023-06-19T08:04:48;16.95;;;15.45;;
16957;SDS011;8595;52.542;11.974;2023-06-19T08:07:16;16.65;;;15.05;;
16957;SDS011;8595;52.542;11.974;2023-06-19T08:09:43;17.40;;;15.80;;
16957;SDS011;8595;52.542;11.974;2023-06-19T08:12:10;19.83;;;15.32;;
16957;SDS011;8595;52.542;11.974;2023-06-19T08:14:36;17.77;;;16.17;;
16957;SDS011;8595;52.542;11.974;2023-06-19T08:17:05;18.55;;;16.70;;
16957;SDS011;8595;52.542;11.974;2023-06-19T08:19:32;17.63;;;16.08;;
16957;SDS011;8595;52.542;11.974;2023-06-19T08:21:58;16.95;;;15.45;;
16957;SDS011;8595;52.542;11.974;2023-06-19T08:24:25;17.15;;;15.52;;
16957;SDS011;8595;52.542;11.974;2023-06-19T08:26:52;16.83;;;15.32;;
16957;SDS011;8595;52.542;11.974;2023-06-19T08:29:19;17.95;;;16.35;;
16957;SDS011;8595;52.542;11.974;2023-06-19T08:31:48;17.55;;;16.05;;
16957;SDS011;8595;52.542;11.974;2023-06-19T08:34:16;17.05;;;15.40;;
16957;SDS011;8595;52.542;11.974;2023-06-19T08:36:43;18.83;;;17.02;;
16957;SDS011;8595;52.542;11.974;2023-06-19T08:39:10;17.27;;;15.43;;
16957;SDS011;8595;52.542;11.974;2023-06-19T08:41:37;17.67;;;15.90;;
16957;SDS011;8595;52.542;11.974;2023-06-19T08:44:06;16.15;;;14.73;;
16957;SDS011;8595;52.542;11.974;2023-06-19T08:46:33;17.35;;;15.32;;
16957;SDS011;8595;52.542;11.974;2023-06-19T08:49:02;17.58;;;15.90;;
16957;SDS011;8595;52.542;11.974;2023-06-19T08:51:32;17.63;;;15.93;;
16957;SDS011;8595;52.542;11.974;2023-06-19T08:54:00;16.10;;;14.68;;
16957;SDS011;8595;52.542;11.974;2023-06-19T08:56:28;15.95;;;14.55;;
16957;SDS011;8595;52.542;11.974;2023-06-19T08:59:07;16.10;;;14.45;;
16957;SDS011;8595;52.542;11.974;2023-06-19T09:01:34;16.83;;;15.35;;
16957;SDS011;8595;52.542;11.974;2023-06-19T09:04:07;16.35;;;14.75;;
16957;SDS011;8595;52.542;11.974;2023-06-19T09:06:36;15.35;;;13.90;;
16957;SDS011;8595;52.542;11.974;2023-06-19T09:09:04;15.02;;;13.50;;
16957;SDS011;8595;52.542;11.974;2023-06-19T09:11:35;15.95;;;14.20;;
16957;SDS011;8595;52.542;11.974;2023-06-19T09:14:05;16.00;;;14.57;;
16957;SDS011;8595;52.542;11.974;2023-06-19T09:16:36;14.32;;;13.02;;
16957;SDS011;8595;52.542;11.974;2023-06-19T09:19:03;15.40;;;13.95;;
16957;SDS011;8595;52.542;11.974;2023-06-19T09:21:30;15.52;;;14.00;;
16957;SDS011;8595;52.542;11.974;2023-06-19T09:24:03;16.35;;;14.55;;
16957;SDS011;8595;52.542;11.974;2023-06-19T09:26:30;15.23;;;13.88;;
16957;SDS011;8595;52.542;11.974;2023-06-19T09:28:57;16.25;;;14.63;;
16957;SDS011;8595;52.542;11.974;2023-06-19T09:31:31;15.93;;;14.52;;
16957;SDS011;8595;52.542;11.974;2023-06-19T09:33:59;15.95;;;14.45;;
16957;SDS011;8595;52.542;11.974;2023-06-19T09:36:25;15.68;;;14.32;;
16957;SDS011;8595;52.542;11.974;2023-06-19T09:38:53;14.82;;;13.45;;
16957;SDS011;8595;52.542;11.974;2023-06-19T09:41:22;15.40;;;13.90;;
16957;SDS011;8595;52.542;11.974;2023-06-19T09:43:50;16.08;;;14.63;;
16957;SDS011;8595;52.542;11.974;2023-06-19T09:46:23;16.23;;;14.73;;
16957;SDS011;8595;52.542;11.974;2023-06-19T09:48:55;18.15;;;14.23;;
16957;SDS011;8595;52.542;11.974;2023-06-19T09:51:27;18.55;;;16.75;;
16957;SDS011;8595;52.542;11.974;2023-06-19T09:53:58;15.15;;;13.52;;
16957;SDS011;8595;52.542;11.974;2023-06-19T09:56:28;14.70;;;13.23;;
16957;SDS011;8595;52.542;11.974;2023-06-19T09:58:56;14.27;;;12.80;;
16957;SDS011;8595;52.542;11.974;2023-06-19T10:01:25;13.82;;;12.50;;
16957;SDS011;8595;52.542;11.974;2023-06-19T10:04:01;13.60;;;12.23;;
16957;SDS011;8595;52.542;11.974;2023-06-19T10:06:31;12.88;;;11.57;;
16957;SDS011;8595;52.542;11.974;2023-06-19T10:09:05;13.00;;;11.80;;
16957;SDS011;8595;52.542;11.974;2023-06-19T10:11:48;12.15;;;11.15;;
16957;SDS011;8595;52.542;11.974;2023-06-19T10:14:17;12.30;;;11.20;;
16957;SDS011;8595;52.542;11.974;2023-06-19T10:16:44;13.23;;;12.00;;
16957;SDS011;8595;52.542;11.974;2023-06-19T10:19:12;12.65;;;10.93;;
16957;SDS011;8595;52.542;11.974;2023-06-19T10:21:44;12.98;;;11.88;;
16957;SDS011;8595;52.542;11.974;2023-06-19T10:24:15;12.77;;;11.55;;
16957;SDS011;8595;52.542;11.974;2023-06-19T10:26:54;13.05;;;11.95;;
16957;SDS011;8595;52.542;11.974;2023-06-19T10:29:25;12.00;;;11.05;;
16957;SDS011;8595;52.542;11.974;2023-06-19T10:31:52;14.30;;;12.95;;
16957;SDS011;8595;52.542;11.974;2023-06-19T10:34:20;12.15;;;10.98;;
16957;SDS011;8595;52.542;11.974;2023-06-19T10:36:47;12.25;;;11.18;;
16957;SDS011;8595;52.542;11.974;2023-06-19T10:39:14;11.18;;;9.90;;
16957;SDS011;8595;52.542;11.974;2023-06-19T10:41:41;11.45;;;10.45;;
16957;SDS011;8595;52.542;11.974;2023-06-19T10:44:09;11.73;;;10.52;;
16957;SDS011;8595;52.542;11.974;2023-06-19T10:46:38;11.55;;;10.43;;
16957;SDS011;8595;52.542;11.974;2023-06-19T10:49:07;10.98;;;9.93;;
16957;SDS011;8595;52.542;11.974;2023-06-19T10:51:36;11.10;;;10.10;;
16957;SDS011;8595;52.542;11.974;2023-06-19T10:54:04;11.13;;;10.05;;
16957;SDS011;8595;52.542;11.974;2023-06-19T10:56:32;9.77;;;8.98;;
16957;SDS011;8595;52.542;11.974;2023-06-19T10:59:02;10.45;;;9.43;;
16957;SDS011;8595;52.542;11.974;2023-06-19T11:01:34;9.40;;;8.50;;
16957;SDS011;8595;52.542;11.974;2023-06-19T11:04:02;11.25;;;10.15;;
16957;SDS011;8595;52.542;11.974;2023-06-19T11:06:30;10.10;;;8.18;;
16957;SDS011;8595;52.542;11.974;2023-06-19T11:08:58;8.98;;;8.07;;
16957;SDS011;8595;52.542;11.974;2023-06-19T11:11:34;8.40;;;7.65;;
16957;SDS011;8595;52.542;11.974;2023-06-19T11:14:04;9.07;;;7.95;;
16957;SDS011;8595;52.542;11.974;2023-06-19T11:16:33;9.95;;;7.40;;
16957;SDS011;8595;52.542;11.974;2023-06-19T11:19:03;7.50;;;6.90;;
16957;SDS011;8595;52.542;11.974;2023-06-19T11:21:32;7.05;;;6.45;;
16957;SDS011;8595;52.542;11.974;2023-06-19T11:24:03;8.30;;;7.50;;
16957;SDS011;8595;52.542;11.974;2023-06-19T11:26:33;11.93;;;7.65;;
16957;SDS011;8595;52.542;11.974;2023-06-19T11:29:01;7.45;;;6.85;;
16957;SDS011;8595;52.542;11.974;2023-06-19T11:31:28;7.38;;;6.78;;
16957;SDS011;8595;52.542;11.974;2023-06-19T11:33:57;8.30;;;7.60;;
16957;SDS011;8595;52.542;11.974;2023-06-19T11:36:24;7.97;;;7.13;;
16957;SDS011;8595;52.542;11.974;2023-06-19T11:38:51;8.10;;;7.32;;
16957;SDS011;8595;52.542;11.974;2023-06-19T11:41:24;8.77;;;7.97;;
16957;SDS011;8595;52.542;11.974;2023-06-19T11:43:57;8.25;;;7.45;;
16957;SDS011;8595;52.542;11.974;2023-06-19T11:46:28;8.02;;;7.22;;
16957;SDS011;8595;52.542;11.974;2023-06-19T11:48:55;7.43;;;6.78;;
16957;SDS011;8595;52.542;11.974;2023-06-19T11:51:32;7.55;;;6.85;;
16957;SDS011;8595;52.542;11.974;2023-06-19T11:53:59;8.93;;;7.00;;
16957;SDS011;8595;52.542;11.974;2023-06-19T11:56:26;8.13;;;7.32;;
16957;SDS011;8595;52.542;11.974;2023-06-19T11:58:52;8.35;;;7.53;;
16957;SDS011;8595;52.542;11.974;2023-06-19T12:01:19;7.72;;;7.03;;
16957;SDS011;8595;52.542;11.974;2023-06-19T12:03:46;8.68;;;7.88;;
16957;SDS011;8595;52.542;11.974;2023-06-19T12:06:16;7.22;;;6.63;;
16957;SDS011;8595;52.542;11.974;2023-06-19T12:08:43;10.77;;;7.65;;
16957;SDS011;8595;52.542;11.974;2023-06-19T12:11:10;10.45;;;7.00;;
16957;SDS011;8595;52.542;11.974;2023-06-19T12:13:38;8.07;;;7.28;;
16957;SDS011;8595;52.542;11.974;2023-06-19T12:16:06;15.65;;;6.82;;
16957;SDS011;8595;52.542;11.974;2023-06-19T12:18:32;8.93;;;7.05;;
16957;SDS011;8595;52.542;11.974;2023-06-19T12:20:59;7.85;;;7.15;;
16957;SDS011;8595;52.542;11.974;2023-06-19T12:23:27;7.82;;;6.95;;
16957;SDS011;8595;52.542;11.974;2023-06-19T12:25:54;7.95;;;7.35;;
16957;SDS011;8595;52.542;11.974;2023-06-19T12:28:21;8.38;;;7.68;;
16957;SDS011;8595;52.542;11.974;2023-06-19T12:30:48;8.68;;;7.80;;
16957;SDS011;8595;52.542;11.974;2023-06-19T12:33:16;7.78;;;7.05;;
16957;SDS011;8595;52.542;11.974;2023-06-19T12:35:44;8.68;;;7.97;;
16957;SDS011;8595;52.542;11.974;2023-06-19T12:38:10;7.47;;;6.80;;
16957;SDS011;8595;52.542;11.974;2023-06-19T12:40:39;7.65;;;6.95;;
16957;SDS011;8595;52.542;11.974;2023-06-19T12:43:06;8.88;;;8.07;;
16957;SDS011;8595;52.542;11.974;2023-06-19T12:45:33;8.82;;;7.85;;
16957;SDS011;8595;52.542;11.974;2023-06-19T12:48:00;7.97;;;7.28;;
16957;SDS011;8595;52.542;11.974;2023-06-19T12:50:27;8.13;;;7.43;;
16957;SDS011;8595;52.542;11.974;2023-06-19T12:52:53;9.93;;;7.38;;
16957;SDS011;8595;52.542;11.974;2023-06-19T12:55:20;8.15;;;7.43;;
16957;SDS011;8595;52.542;11.974;2023-06-19T12:57:48;9.02;;;8.23;;
16957;SDS011;8595;52.542;11.974;2023-06-19T13:00:15;8.60;;;7.90;;
16957;SDS011;8595;52.542;11.974;2023-06-19T13:02:42;9.35;;;8.52;;
16957;SDS011;8595;52.542;11.974;2023-06-19T13:05:11;12.18;;;8.52;;
16957;SDS011;8595;52.542;11.974;2023-06-19T13:07:38;8.65;;;7.75;;
16957;SDS011;8595;52.542;11.974;2023-06-19T13:10:05;10.07;;;9.18;;
16957;SDS011;8595;52.542;11.974;2023-06-19T13:12:32;10.30;;;8.52;;
16957;SDS011;8595;52.542;11.974;2023-06-19T13:15:01;9.65;;;8.75;;
16957;SDS011;8595;52.542;11.974;2023-06-19T13:17:28;8.80;;;8.00;;
16957;SDS011;8595;52.542;11.974;2023-06-19T13:19:55;9.00;;;8.18;;
16957;SDS011;8595;52.542;11.974;2023-06-19T13:22:22;8.60;;;7.72;;
16957;SDS011;8595;52.542;11.974;2023-06-19T13:24:49;9.88;;;7.60;;
16957;SDS011;8595;52.542;11.974;2023-06-19T13:27:16;8.93;;;7.97;;
16957;SDS011;8595;52.542;11.974;2023-06-19T13:29:43;10.32;;;8.82;;
16957;SDS011;8595;52.542;11.974;2023-06-19T13:32:11;8.65;;;7.85;;
16957;SDS011;8595;52.542;11.974;2023-06-19T13:34:38;8.43;;;7.72;;
16957;SDS011;8595;52.542;11.974;2023-06-19T13:37:04;9.98;;;9.07;;
16957;SDS011;8595;52.542;11.974;2023-06-19T13:39:31;8.63;;;7.82;;
16957;SDS011;8595;52.542;11.974;2023-06-19T13:41:58;9.45;;;8.52;;
16957;SDS011;8595;52.542;11.974;2023-06-19T13:44:26;9.50;;;8.63;;
16957;SDS011;8595;52.542;11.974;2023-06-19T13:46:54;9.13;;;7.85;;
16957;SDS011;8595;52.542;11.974;2023-06-19T13:49:25;9.88;;;8.80;;
16957;SDS011;8595;52.542;11.974;2023-06-19T13:51:52;9.50;;;8.52;;
16957;SDS011;8595;52.542;11.974;2023-06-19T13:54:19;10.00;;;8.88;;
16957;SDS011;8595;52.542;11.974;2023-06-19T13:56:46;10.18;;;8.60;;
16957;SDS011;8595;52.542;11.974;2023-06-19T13:59:12;9.13;;;7.97;;
16957;SDS011;8595;52.542;11.974;2023-06-19T14:01:39;11.25;;;8.23;;
16957;SDS011;8595;52.542;11.974;2023-06-19T14:04:06;8.82;;;8.02;;
16957;SDS011;8595;52.542;11.974;2023-06-19T14:06:35;8.90;;;8.00;;
16957;SDS011;8595;52.542;11.974;2023-06-19T14:09:03;11.82;;;8.48;;
16957;SDS011;8595;52.542;11.974;2023-06-19T14:11:30;11.20;;;8.57;;
16957;SDS011;8595;52.542;11.974;2023-06-19T14:13:57;10.55;;;9.45;;
16957;SDS011;8595;52.542;11.974;2023-06-19T14:16:24;10.05;;;9.05;;
16957;SDS011;8595;52.542;11.974;2023-06-19T14:18:51;9.98;;;8.98;;
16957;SDS011;8595;52.542;11.974;2023-06-19T14:21:19;11.00;;;8.48;;
16957;SDS011;8595;52.542;11.974;2023-06-19T14:23:48;9.73;;;8.73;;
16957;SDS011;8595;52.542;11.974;2023-06-19T14:26:17;10.55;;;7.63;;
16957;SDS011;8595;52.542;11.974;2023-06-19T14:28:43;9.65;;;8.55;;
16957;SDS011;8595;52.542;11.974;2023-06-19T14:31:10;11.50;;;9.25;;